sensor_id;sensor_type;location;lat;lon;timestamp;noise_LAeq;noise_LA_min;noise_LA_max;noise_LA01;noise_LA95
80324;Laerm;69639;52.380;9.962;2023-05-07T00:00:34;27.94;26.76;33.54;;
80324;Laerm;69639;52.380;9.962;2023-05-07T00:02:36;27.92;26.71;32.92;;
80324;Laerm;69639;52.380;9.962;2023-05-07T00:04:38;27.89;26.31;32.89;;
80324;Laerm;69639;52.380;9.962;2023-05-07T00:06:39;27.94;26.74;32.36;;
80324;Laerm;69639;52.380;9.962;2023-05-07T00:08:46;27.95;26.69;35.07;;
80324;Laerm;69639;52.380;9.962;2023-05-07T00:10:47;27.92;26.67;33.34;;
80324;Laerm;69639;52.380;9.962;2023-05-07T00:12:49;27.93;26.65;33.36;;
80324;Laerm;69639;52.380;9.962;2023-05-07T00:14:51;27.94;26.56;33.02;;
80324;Laerm;69639;52.380;9.962;2023-05-07T00:16:52;28.03;26.63;38.68;;
80324;Laerm;69639;52.380;9.962;2023-05-07T00:18:54;33.62;26.75;59.54;;
80324;Laerm;69639;52.380;9.962;2023-05-07T00:20:56;28.21;26.71;51.33;;
80324;Laerm;69639;52.380;9.962;2023-05-07T00:22:58;28.00;26.76;36.41;;
80324;Laerm;69639;52.380;9.962;2023-05-07T00:25:00;27.97;26.49;36.13;;
80324;Laerm;69639;52.380;9.962;2023-05-07T00:27:20;27.95;26.64;33.04;;
80324;Laerm;69639;52.380;9.962;2023-05-07T00:29:22;27.93;26.24;33.54;;
80324;Laerm;69639;52.380;9.962;2023-05-07T00:31:23;27.95;26.65;33.63;;
80324;Laerm;69639;52.380;9.962;2023-05-07T00:33:25;27.92;26.74;31.97;;
80324;Laerm;69639;52.380;9.962;2023-05-07T00:35:45;27.98;26.64;33.59;;
80324;Laerm;69639;52.380;9.962;2023-05-07T00:37:46;27.96;26.63;34.79;;
80324;Laerm;69639;52.380;9.962;2023-05-07T00:39:48;28.03;26.83;35.25;;
80324;Laerm;69639;52.380;9.962;2023-05-07T00:41:50;27.98;26.60;40.84;;
80324;Laerm;69639;52.380;9.962;2023-05-07T00:43:52;28.65;26.65;50.24;;
80324;Laerm;69639;52.380;9.962;2023-05-07T00:45:53;27.93;26.63;31.54;;
80324;Laerm;69639;52.380;9.962;2023-05-07T00:47:56;28.02;26.72;34.97;;
80324;Laerm;69639;52.380;9.962;2023-05-07T00:49:58;27.97;26.78;33.16;;
80324;Laerm;69639;52.380;9.962;2023-05-07T00:52:00;28.05;26.75;33.81;;
80324;Laerm;69639;52.380;9.962;2023-05-07T00:54:03;27.94;26.75;31.72;;
80324;Laerm;69639;52.380;9.962;2023-05-07T00:56:05;30.13;26.86;55.55;;
80324;Laerm;69639;52.380;9.962;2023-05-07T00:58:07;28.06;26.73;34.38;;
80324;Laerm;69639;52.380;9.962;2023-05-07T01:00:09;27.94;26.63;32.88;;
80324;Laerm;69639;52.380;9.962;2023-05-07T01:02:11;28.12;26.71;36.89;;
80324;Laerm;69639;52.380;9.962;2023-05-07T01:04:31;27.93;26.52;31.98;;
80324;Laerm;69639;52.380;9.962;2023-05-07T01:06:33;27.98;26.59;33.12;;
80324;Laerm;69639;52.380;9.962;2023-05-07T01:08:35;27.98;26.78;33.20;;
80324;Laerm;69639;52.380;9.962;2023-05-07T01:10:56;27.98;26.78;32.26;;
80324;Laerm;69639;52.380;9.962;2023-05-07T01:12:58;28.12;26.60;42.55;;
80324;Laerm;69639;52.380;9.962;2023-05-07T01:15:01;28.02;26.85;32.95;;
80324;Laerm;69639;52.380;9.962;2023-05-07T01:17:07;27.95;26.67;31.84;;
80324;Laerm;69639;52.380;9.962;2023-05-07T01:19:11;27.95;26.80;32.77;;
80324;Laerm;69639;52.380;9.962;2023-05-07T01:21:15;28.07;26.78;36.71;;
80324;Laerm;69639;52.380;9.962;2023-05-07T01:23:18;27.98;26.84;32.57;;
80324;Laerm;69639;52.380;9.962;2023-05-07T01:25:38;27.92;26.50;31.85;;
80324;Laerm;69639;52.380;9.962;2023-05-07T01:27:40;28.01;26.64;32.06;;
80324;Laerm;69639;52.380;9.962;2023-05-07T01:29:41;27.96;26.71;34.47;;
80324;Laerm;69639;52.380;9.962;2023-05-07T01:31:44;28.04;26.79;34.25;;
80324;Laerm;69639;52.380;9.962;2023-05-07T01:34:07;28.06;26.78;35.10;;
80324;Laerm;69639;52.380;9.962;2023-05-07T01:36:11;27.92;26.72;32.66;;
80324;Laerm;69639;52.380;9.962;2023-05-07T01:38:32;27.95;26.69;31.85;;
80324;Laerm;69639;52.380;9.962;2023-05-07T01:40:34;27.97;26.62;32.32;;
80324;Laerm;69639;52.380;9.962;2023-05-07T01:42:54;27.98;26.87;34.72;;
80324;Laerm;69639;52.380;9.962;2023-05-07T01:44:56;28.06;26.86;32.47;;
80324;Laerm;69639;52.380;9.962;2023-05-07T01:47:16;27.99;26.80;33.58;;
80324;Laerm;69639;52.380;9.962;2023-05-07T01:49:18;27.97;26.76;33.56;;
80324;Laerm;69639;52.380;9.962;2023-05-07T01:51:39;27.94;26.74;32.52;;
80324;Laerm;69639;52.380;9.962;2023-05-07T01:53:41;27.96;26.60;33.27;;
80324;Laerm;69639;52.380;9.962;2023-05-07T01:56:01;28.04;26.69;34.20;;
80324;Laerm;69639;52.380;9.962;2023-05-07T01:58:03;27.95;26.68;30.94;;
80324;Laerm;69639;52.380;9.962;2023-05-07T02:00:05;27.99;26.77;32.80;;
80324;Laerm;69639;52.380;9.962;2023-05-07T02:02:07;27.95;26.74;33.28;;
80324;Laerm;69639;52.380;9.962;2023-05-07T02:04:09;28.02;26.71;33.02;;
80324;Laerm;69639;52.380;9.962;2023-05-07T02:06:11;27.99;26.83;35.22;;
80324;Laerm;69639;52.380;9.962;2023-05-07T02:08:12;28.00;26.63;35.03;;
80324;Laerm;69639;52.380;9.962;2023-05-07T02:10:32;27.96;26.64;32.49;;
80324;Laerm;69639;52.380;9.962;2023-05-07T02:12:34;27.99;26.73;34.21;;
80324;Laerm;69639;52.380;9.962;2023-05-07T02:14:36;28.07;26.66;36.38;;
80324;Laerm;69639;52.380;9.962;2023-05-07T02:16:38;28.00;26.77;33.40;;
80324;Laerm;69639;52.380;9.962;2023-05-07T02:18:58;28.05;26.75;33.23;;
80324;Laerm;69639;52.380;9.962;2023-05-07T02:20:59;27.96;26.67;32.42;;
80324;Laerm;69639;52.380;9.962;2023-05-07T02:23:01;28.02;26.66;34.35;;
80324;Laerm;69639;52.380;9.962;2023-05-07T02:25:03;28.02;26.64;32.31;;
80324;Laerm;69639;52.380;9.962;2023-05-07T02:27:05;27.98;26.85;32.58;;
80324;Laerm;69639;52.380;9.962;2023-05-07T02:29:06;29.87;26.45;50.56;;
80324;Laerm;69639;52.380;9.962;2023-05-07T02:31:11;28.19;26.75;35.18;;
80324;Laerm;69639;52.380;9.962;2023-05-07T02:33:13;28.03;26.80;33.74;;
80324;Laerm;69639;52.380;9.962;2023-05-07T02:35:15;27.96;26.63;32.94;;
80324;Laerm;69639;52.380;9.962;2023-05-07T02:37:18;28.07;26.85;35.43;;
80324;Laerm;69639;52.380;9.962;2023-05-07T02:39:20;27.99;26.74;35.06;;
80324;Laerm;69639;52.380;9.962;2023-05-07T02:41:40;27.96;26.78;34.74;;
80324;Laerm;69639;52.380;9.962;2023-05-07T02:43:41;28.06;26.64;32.32;;
80324;Laerm;69639;52.380;9.962;2023-05-07T02:45:43;28.03;26.73;33.33;;
80324;Laerm;69639;52.380;9.962;2023-05-07T02:48:04;28.08;26.77;32.95;;
80324;Laerm;69639;52.380;9.962;2023-05-07T02:50:06;28.07;26.69;33.67;;
80324;Laerm;69639;52.380;9.962;2023-05-07T02:52:08;28.08;26.85;32.70;;
80324;Laerm;69639;52.380;9.962;2023-05-07T02:54:09;29.22;26.86;34.99;;
80324;Laerm;69639;52.380;9.962;2023-05-07T02:56:12;28.27;26.68;36.15;;
80324;Laerm;69639;52.380;9.962;2023-05-07T02:58:14;28.22;26.85;41.13;;
80324;Laerm;69639;52.380;9.962;2023-05-07T03:00:17;28.05;26.78;32.60;;
80324;Laerm;69639;52.380;9.962;2023-05-07T03:02:19;28.11;26.71;37.13;;
80324;Laerm;69639;52.380;9.962;2023-05-07T03:04:24;28.60;26.90;36.82;;
80324;Laerm;69639;52.380;9.962;2023-05-07T03:06:25;29.59;26.87;46.26;;
80324;Laerm;69639;52.380;9.962;2023-05-07T03:08:27;28.19;26.85;33.82;;
80324;Laerm;69639;52.380;9.962;2023-05-07T03:10:29;28.20;26.72;35.89;;
80324;Laerm;69639;52.380;9.962;2023-05-07T03:12:31;29.12;26.71;39.57;;
80324;Laerm;69639;52.380;9.962;2023-05-07T03:14:33;29.19;26.32;40.44;;
80324;Laerm;69639;52.380;9.962;2023-05-07T03:16:35;29.08;26.92;42.20;;
80324;Laerm;69639;52.380;9.962;2023-05-07T03:18:37;28.26;26.71;34.75;;
80324;Laerm;69639;52.380;9.962;2023-05-07T03:20:38;28.67;26.73;39.17;;
80324;Laerm;69639;52.380;9.962;2023-05-07T03:22:40;28.67;26.95;41.30;;
80324;Laerm;69639;52.380;9.962;2023-05-07T03:24:42;28.36;27.01;38.45;;
80324;Laerm;69639;52.380;9.962;2023-05-07T03:26:43;28.15;26.61;33.40;;
80324;Laerm;69639;52.380;9.962;2023-05-07T03:28:45;28.59;26.73;39.93;;
80324;Laerm;69639;52.380;9.962;2023-05-07T03:30:47;28.55;26.80;40.30;;
80324;Laerm;69639;52.380;9.962;2023-05-07T03:33:07;28.11;26.83;35.11;;
80324;Laerm;69639;52.380;9.962;2023-05-07T03:35:09;29.53;26.80;50.88;;
80324;Laerm;69639;52.380;9.962;2023-05-07T03:37:11;28.01;26.47;36.91;;
80324;Laerm;69639;52.380;9.962;2023-05-07T03:39:12;30.37;26.84;55.69;;
80324;Laerm;69639;52.380;9.962;2023-05-07T03:41:32;28.06;26.56;35.70;;
80324;Laerm;69639;52.380;9.962;2023-05-07T03:43:34;28.06;26.70;33.31;;
80324;Laerm;69639;52.380;9.962;2023-05-07T03:45:54;28.05;26.54;34.38;;
80324;Laerm;69639;52.380;9.962;2023-05-07T03:47:56;32.97;26.68;57.57;;
80324;Laerm;69639;52.380;9.962;2023-05-07T03:50:07;28.14;26.55;45.80;;
80324;Laerm;69639;52.380;9.962;2023-05-07T03:52:09;30.50;26.72;51.81;;
80324;Laerm;69639;52.380;9.962;2023-05-07T03:54:30;48.30;26.85;78.67;;
80324;Laerm;69639;52.380;9.962;2023-05-07T03:56:31;35.18;26.88;61.03;;
80324;Laerm;69639;52.380;9.962;2023-05-07T03:58:52;28.33;26.94;33.93;;
80324;Laerm;69639;52.380;9.962;2023-05-07T04:00:54;28.34;26.73;49.41;;
80324;Laerm;69639;52.380;9.962;2023-05-07T04:02:55;34.04;26.68;58.52;;
80324;Laerm;69639;52.380;9.962;2023-05-07T04:04:57;28.05;26.67;37.34;;
80324;Laerm;69639;52.380;9.962;2023-05-07T04:06:59;28.45;26.79;44.65;;
80324;Laerm;69639;52.380;9.962;2023-05-07T04:09:00;36.93;26.92;63.51;;
80324;Laerm;69639;52.380;9.962;2023-05-07T04:11:21;28.10;26.83;31.45;;
80324;Laerm;69639;52.380;9.962;2023-05-07T04:13:22;28.09;26.67;31.09;;
80324;Laerm;69639;52.380;9.962;2023-05-07T04:15:24;28.00;26.68;32.30;;
80324;Laerm;69639;52.380;9.962;2023-05-07T04:17:26;38.26;26.79;65.57;;
80324;Laerm;69639;52.380;9.962;2023-05-07T04:19:27;28.07;26.74;33.35;;
80324;Laerm;69639;52.380;9.962;2023-05-07T04:21:29;28.07;26.60;33.82;;
80324;Laerm;69639;52.380;9.962;2023-05-07T04:23:31;28.11;26.72;35.98;;
80324;Laerm;69639;52.380;9.962;2023-05-07T04:25:33;28.48;26.81;44.71;;
80324;Laerm;69639;52.380;9.962;2023-05-07T04:27:35;39.86;26.79;67.43;;
80324;Laerm;69639;52.380;9.962;2023-05-07T04:29:36;28.12;26.65;31.53;;
80324;Laerm;69639;52.380;9.962;2023-05-07T04:31:38;28.08;26.68;35.21;;
80324;Laerm;69639;52.380;9.962;2023-05-07T04:33:40;34.67;26.81;63.07;;
80324;Laerm;69639;52.380;9.962;2023-05-07T04:35:41;39.66;26.67;64.90;;
80324;Laerm;69639;52.380;9.962;2023-05-07T04:37:43;28.01;26.85;32.17;;
80324;Laerm;69639;52.380;9.962;2023-05-07T04:39:45;28.04;26.59;33.79;;
80324;Laerm;69639;52.380;9.962;2023-05-07T04:41:53;28.05;26.82;34.65;;
80324;Laerm;69639;52.380;9.962;2023-05-07T04:43:55;28.04;26.82;35.21;;
80324;Laerm;69639;52.380;9.962;2023-05-07T04:46:15;38.97;26.74;68.59;;
80324;Laerm;69639;52.380;9.962;2023-05-07T04:48:17;38.89;26.94;64.24;;
80324;Laerm;69639;52.380;9.962;2023-05-07T04:50:18;28.63;26.72;48.80;;
80324;Laerm;69639;52.380;9.962;2023-05-07T04:52:20;38.02;26.52;65.51;;
80324;Laerm;69639;52.380;9.962;2023-05-07T04:54:40;32.22;26.65;56.07;;
80324;Laerm;69639;52.380;9.962;2023-05-07T04:56:42;37.24;26.58;64.21;;
80324;Laerm;69639;52.380;9.962;2023-05-07T04:58:44;28.45;26.62;41.82;;
80324;Laerm;69639;52.380;9.962;2023-05-07T05:00:45;27.83;26.70;34.73;;
80324;Laerm;69639;52.380;9.962;2023-05-07T05:02:47;27.80;26.56;32.16;;
80324;Laerm;69639;52.380;9.962;2023-05-07T05:04:49;34.65;26.34;59.46;;
80324;Laerm;69639;52.380;9.962;2023-05-07T05:06:50;27.95;26.51;48.75;;
80324;Laerm;69639;52.380;9.962;2023-05-07T05:08:52;34.00;26.33;61.01;;
80324;Laerm;69639;52.380;9.962;2023-05-07T05:11:13;27.71;26.30;33.86;;
80324;Laerm;69639;52.380;9.962;2023-05-07T05:13:14;27.81;26.38;33.63;;
80324;Laerm;69639;52.380;9.962;2023-05-07T05:15:16;27.69;26.40;32.85;;
80324;Laerm;69639;52.380;9.962;2023-05-07T05:17:36;27.58;26.20;34.16;;
80324;Laerm;69639;52.380;9.962;2023-05-07T05:19:56;28.86;26.16;49.85;;
80324;Laerm;69639;52.380;9.962;2023-05-07T05:21:58;27.48;26.33;36.23;;
80324;Laerm;69639;52.380;9.962;2023-05-07T05:24:02;27.55;26.20;39.86;;
80324;Laerm;69639;52.380;9.962;2023-05-07T05:26:04;27.74;26.37;42.87;;
80324;Laerm;69639;52.380;9.962;2023-05-07T05:28:05;29.16;26.17;49.88;;
80324;Laerm;69639;52.380;9.962;2023-05-07T05:30:07;41.85;26.37;68.06;;
80324;Laerm;69639;52.380;9.962;2023-05-07T05:32:09;40.74;27.55;64.50;;
80324;Laerm;69639;52.380;9.962;2023-05-07T05:34:11;41.72;27.73;68.93;;
80324;Laerm;69639;52.380;9.962;2023-05-07T05:36:13;49.95;27.73;69.47;;
80324;Laerm;69639;52.380;9.962;2023-05-07T05:38:14;33.40;27.70;63.24;;
80324;Laerm;69639;52.380;9.962;2023-05-07T05:40:34;38.86;27.75;68.79;;
80324;Laerm;69639;52.380;9.962;2023-05-07T05:42:36;38.77;27.96;67.30;;
80324;Laerm;69639;52.380;9.962;2023-05-07T05:44:56;37.51;28.12;65.36;;
80324;Laerm;69639;52.380;9.962;2023-05-07T05:46:58;31.03;27.93;50.64;;
80324;Laerm;69639;52.380;9.962;2023-05-07T05:49:00;41.36;28.07;66.89;;
80324;Laerm;69639;52.380;9.962;2023-05-07T05:51:02;30.83;27.99;45.49;;
80324;Laerm;69639;52.380;9.962;2023-05-07T05:53:03;37.96;28.06;64.35;;
80324;Laerm;69639;52.380;9.962;2023-05-07T05:55:06;37.10;27.92;64.44;;
80324;Laerm;69639;52.380;9.962;2023-05-07T05:57:07;31.21;27.58;47.27;;
80324;Laerm;69639;52.380;9.962;2023-05-07T05:59:10;30.67;27.96;46.65;;
80324;Laerm;69639;52.380;9.962;2023-05-07T06:01:11;43.95;27.96;69.92;;
80324;Laerm;69639;52.380;9.962;2023-05-07T06:03:13;34.26;27.76;58.65;;
80324;Laerm;69639;52.380;9.962;2023-05-07T06:05:15;31.16;28.07;44.57;;
80324;Laerm;69639;52.380;9.962;2023-05-07T06:07:17;41.67;28.01;68.03;;
80324;Laerm;69639;52.380;9.962;2023-05-07T06:09:19;31.77;28.07;50.98;;
80324;Laerm;69639;52.380;9.962;2023-05-07T06:11:21;43.35;28.09;63.72;;
80324;Laerm;69639;52.380;9.962;2023-05-07T06:13:23;31.22;28.04;44.49;;
80324;Laerm;69639;52.380;9.962;2023-05-07T06:15:43;44.38;28.29;67.77;;
80324;Laerm;69639;52.380;9.962;2023-05-07T06:17:44;31.36;28.37;47.93;;
80324;Laerm;69639;52.380;9.962;2023-05-07T06:19:46;32.13;28.07;49.92;;
80324;Laerm;69639;52.380;9.962;2023-05-07T06:21:48;39.30;27.65;62.99;;
80324;Laerm;69639;52.380;9.962;2023-05-07T06:23:50;42.02;27.83;69.52;;
80324;Laerm;69639;52.380;9.962;2023-05-07T06:25:51;46.13;28.36;73.47;;
80324;Laerm;69639;52.380;9.962;2023-05-07T06:27:54;53.20;28.25;79.53;;
80324;Laerm;69639;52.380;9.962;2023-05-07T06:29:55;51.65;26.76;78.66;;
80324;Laerm;69639;52.380;9.962;2023-05-07T06:32:06;38.11;26.90;64.62;;
80324;Laerm;69639;52.380;9.962;2023-05-07T06:34:07;30.04;26.95;39.53;;
80324;Laerm;69639;52.380;9.962;2023-05-07T06:36:09;29.91;26.44;44.30;;
80324;Laerm;69639;52.380;9.962;2023-05-07T06:38:11;29.79;26.99;48.51;;
80324;Laerm;69639;52.380;9.962;2023-05-07T06:40:13;30.59;26.46;57.04;;
80324;Laerm;69639;52.380;9.962;2023-05-07T06:42:15;28.10;26.69;39.66;;
80324;Laerm;69639;52.380;9.962;2023-05-07T06:44:16;28.28;26.56;42.44;;
80324;Laerm;69639;52.380;9.962;2023-05-07T06:46:18;28.31;26.45;35.84;;
80324;Laerm;69639;52.380;9.962;2023-05-07T06:48:38;28.01;26.60;32.91;;
80324;Laerm;69639;52.380;9.962;2023-05-07T06:50:41;28.89;26.51;35.21;;
80324;Laerm;69639;52.380;9.962;2023-05-07T06:52:43;27.95;26.49;35.02;;
80324;Laerm;69639;52.380;9.962;2023-05-07T06:54:45;28.16;26.65;33.88;;
80324;Laerm;69639;52.380;9.962;2023-05-07T06:56:47;28.28;26.69;36.42;;
80324;Laerm;69639;52.380;9.962;2023-05-07T06:58:48;30.11;26.56;56.43;;
80324;Laerm;69639;52.380;9.962;2023-05-07T07:00:50;27.78;26.27;35.23;;
80324;Laerm;69639;52.380;9.962;2023-05-07T07:02:54;48.73;26.37;71.82;;
80324;Laerm;69639;52.380;9.962;2023-05-07T07:04:56;52.84;26.89;75.74;;
80324;Laerm;69639;52.380;9.962;2023-05-07T07:06:59;32.13;27.66;47.21;;
80324;Laerm;69639;52.380;9.962;2023-05-07T07:09:19;34.91;27.43;53.27;;
80324;Laerm;69639;52.380;9.962;2023-05-07T07:11:39;36.65;27.45;59.85;;
80324;Laerm;69639;52.380;9.962;2023-05-07T07:13:59;42.52;28.26;71.68;;
80324;Laerm;69639;52.380;9.962;2023-05-07T07:16:01;35.55;28.21;56.63;;
80324;Laerm;69639;52.380;9.962;2023-05-07T07:18:04;48.30;27.59;70.64;;
80324;Laerm;69639;52.380;9.962;2023-05-07T07:20:06;49.22;27.80;73.14;;
80324;Laerm;69639;52.380;9.962;2023-05-07T07:22:08;30.52;27.95;45.90;;
80324;Laerm;69639;52.380;9.962;2023-05-07T07:24:09;31.14;27.42;51.94;;
80324;Laerm;69639;52.380;9.962;2023-05-07T07:26:11;30.57;27.92;42.62;;
80324;Laerm;69639;52.380;9.962;2023-05-07T07:28:13;30.44;27.92;44.39;;
80324;Laerm;69639;52.380;9.962;2023-05-07T07:30:14;30.72;27.66;46.13;;
80324;Laerm;69639;52.380;9.962;2023-05-07T07:32:16;30.21;27.48;44.08;;
80324;Laerm;69639;52.380;9.962;2023-05-07T07:34:18;30.53;27.86;44.05;;
80324;Laerm;69639;52.380;9.962;2023-05-07T07:36:19;30.43;27.70;44.77;;
80324;Laerm;69639;52.380;9.962;2023-05-07T07:38:21;30.66;27.95;44.71;;
80324;Laerm;69639;52.380;9.962;2023-05-07T07:40:23;31.89;27.47;47.79;;
80324;Laerm;69639;52.380;9.962;2023-05-07T07:42:25;31.34;27.79;45.83;;
80324;Laerm;69639;52.380;9.962;2023-05-07T07:44:45;41.05;27.73;67.05;;
80324;Laerm;69639;52.380;9.962;2023-05-07T07:46:47;33.68;27.81;56.29;;
80324;Laerm;69639;52.380;9.962;2023-05-07T07:48:49;33.40;27.62;55.60;;
80324;Laerm;69639;52.380;9.962;2023-05-07T07:50:51;29.59;27.49;41.63;;
80324;Laerm;69639;52.380;9.962;2023-05-07T07:52:53;33.91;27.53;58.06;;
80324;Laerm;69639;52.380;9.962;2023-05-07T07:54:55;32.38;27.73;48.99;;
80324;Laerm;69639;52.380;9.962;2023-05-07T07:56:56;31.16;28.01;47.37;;
80324;Laerm;69639;52.380;9.962;2023-05-07T07:59:17;30.97;27.59;49.60;;
80324;Laerm;69639;52.380;9.962;2023-05-07T08:01:37;32.35;27.48;51.80;;
80324;Laerm;69639;52.380;9.962;2023-05-07T08:03:38;30.41;27.67;45.52;;
80324;Laerm;69639;52.380;9.962;2023-05-07T08:05:40;31.36;27.40;47.25;;
80324;Laerm;69639;52.380;9.962;2023-05-07T08:07:42;35.18;27.53;59.71;;
80324;Laerm;69639;52.380;9.962;2023-05-07T08:10:02;37.30;27.50;52.04;;
80324;Laerm;69639;52.380;9.962;2023-05-07T08:12:23;31.93;27.39;53.42;;
80324;Laerm;69639;52.380;9.962;2023-05-07T08:14:25;55.65;27.65;72.24;;
80324;Laerm;69639;52.380;9.962;2023-05-07T08:16:26;53.84;27.69;82.36;;
80324;Laerm;69639;52.380;9.962;2023-05-07T08:18:46;52.27;27.62;80.78;;
80324;Laerm;69639;52.380;9.962;2023-05-07T08:20:48;41.68;27.59;71.44;;
80324;Laerm;69639;52.380;9.962;2023-05-07T08:22:51;37.98;27.68;55.91;;
80324;Laerm;69639;52.380;9.962;2023-05-07T08:24:52;38.97;27.69;61.69;;
80324;Laerm;69639;52.380;9.962;2023-05-07T08:26:54;37.39;27.77;55.52;;
80324;Laerm;69639;52.380;9.962;2023-05-07T08:28:58;36.69;27.82;54.21;;
80324;Laerm;69639;52.380;9.962;2023-05-07T08:30:59;36.14;27.73;53.67;;
80324;Laerm;69639;52.380;9.962;2023-05-07T08:33:01;34.67;27.47;59.37;;
80324;Laerm;69639;52.380;9.962;2023-05-07T08:35:03;35.23;27.73;64.71;;
80324;Laerm;69639;52.380;9.962;2023-05-07T08:37:05;34.13;27.48;61.68;;
80324;Laerm;69639;52.380;9.962;2023-05-07T08:39:07;34.14;27.59;55.02;;
80324;Laerm;69639;52.380;9.962;2023-05-07T08:41:10;32.33;27.19;50.28;;
80324;Laerm;69639;52.380;9.962;2023-05-07T08:43:14;31.90;27.62;48.55;;
80324;Laerm;69639;52.380;9.962;2023-05-07T08:45:17;33.10;27.61;49.33;;
80324;Laerm;69639;52.380;9.962;2023-05-07T08:47:21;37.00;27.51;65.31;;
80324;Laerm;69639;52.380;9.962;2023-05-07T08:49:24;34.96;27.15;60.40;;
80324;Laerm;69639;52.380;9.962;2023-05-07T08:51:26;35.70;27.57;57.89;;
80324;Laerm;69639;52.380;9.962;2023-05-07T08:53:27;46.81;27.61;73.65;;
80324;Laerm;69639;52.380;9.962;2023-05-07T08:55:29;42.60;27.49;64.69;;
80324;Laerm;69639;52.380;9.962;2023-05-07T08:57:31;31.13;27.50;59.58;;
80324;Laerm;69639;52.380;9.962;2023-05-07T08:59:33;29.81;27.45;51.22;;
80324;Laerm;69639;52.380;9.962;2023-05-07T09:01:34;42.69;27.51;71.58;;
80324;Laerm;69639;52.380;9.962;2023-05-07T09:03:54;48.10;30.22;75.13;;
80324;Laerm;69639;52.380;9.962;2023-05-07T09:06:15;55.73;29.70;87.31;;
80324;Laerm;69639;52.380;9.962;2023-05-07T09:08:36;33.11;29.25;51.44;;
80324;Laerm;69639;52.380;9.962;2023-05-07T09:10:37;34.70;29.99;62.11;;
80324;Laerm;69639;52.380;9.962;2023-05-07T09:12:39;35.42;31.22;55.82;;
80324;Laerm;69639;52.380;9.962;2023-05-07T09:14:59;33.66;29.90;48.22;;
80324;Laerm;69639;52.380;9.962;2023-05-07T09:17:01;44.60;29.98;63.62;;
80324;Laerm;69639;52.380;9.962;2023-05-07T09:19:03;36.37;29.32;55.76;;
80324;Laerm;69639;52.380;9.962;2023-05-07T09:21:23;36.52;30.39;55.67;;
80324;Laerm;69639;52.380;9.962;2023-05-07T09:23:25;43.51;31.22;70.52;;
80324;Laerm;69639;52.380;9.962;2023-05-07T09:25:31;40.44;29.81;73.18;;
80324;Laerm;69639;52.380;9.962;2023-05-07T09:27:33;33.51;29.58;45.62;;
80324;Laerm;69639;52.380;9.962;2023-05-07T09:29:53;37.79;30.74;60.15;;
80324;Laerm;69639;52.380;9.962;2023-05-07T09:31:55;34.28;29.95;51.86;;
80324;Laerm;69639;52.380;9.962;2023-05-07T09:33:57;50.40;30.04;75.36;;
80324;Laerm;69639;52.380;9.962;2023-05-07T09:36:02;55.17;30.37;84.99;;
80324;Laerm;69639;52.380;9.962;2023-05-07T09:38:04;35.52;30.72;55.16;;
80324;Laerm;69639;52.380;9.962;2023-05-07T09:40:07;43.80;30.71;76.49;;
80324;Laerm;69639;52.380;9.962;2023-05-07T09:42:09;35.30;30.70;55.42;;
80324;Laerm;69639;52.380;9.962;2023-05-07T09:44:12;34.70;30.42;57.40;;
80324;Laerm;69639;52.380;9.962;2023-05-07T09:46:14;33.30;29.97;40.74;;
80324;Laerm;69639;52.380;9.962;2023-05-07T09:48:39;47.47;30.38;75.19;;
80324;Laerm;69639;52.380;9.962;2023-05-07T09:50:48;36.11;30.84;56.70;;
80324;Laerm;69639;52.380;9.962;2023-05-07T09:52:50;36.95;30.44;62.92;;
80324;Laerm;69639;52.380;9.962;2023-05-07T09:54:52;33.65;29.97;47.64;;
80324;Laerm;69639;52.380;9.962;2023-05-07T09:56:55;42.87;30.28;73.34;;
80324;Laerm;69639;52.380;9.962;2023-05-07T09:58:59;37.33;30.00;62.75;;
80324;Laerm;69639;52.380;9.962;2023-05-07T10:01:02;38.32;30.23;63.46;;
80324;Laerm;69639;52.380;9.962;2023-05-07T10:03:04;49.27;29.32;79.54;;
80324;Laerm;69639;52.380;9.962;2023-05-07T10:05:07;41.23;29.24;72.95;;
80324;Laerm;69639;52.380;9.962;2023-05-07T10:07:09;36.85;29.51;63.54;;
80324;Laerm;69639;52.380;9.962;2023-05-07T10:09:10;37.03;29.61;67.10;;
80324;Laerm;69639;52.380;9.962;2023-05-07T10:11:14;35.64;29.36;61.11;;
80324;Laerm;69639;52.380;9.962;2023-05-07T10:13:18;37.50;29.61;66.53;;
80324;Laerm;69639;52.380;9.962;2023-05-07T10:15:21;37.72;29.65;65.45;;
80324;Laerm;69639;52.380;9.962;2023-05-07T10:17:23;37.05;29.18;59.82;;
80324;Laerm;69639;52.380;9.962;2023-05-07T10:19:25;36.77;29.84;61.60;;
80324;Laerm;69639;52.380;9.962;2023-05-07T10:21:29;39.94;29.54;69.79;;
80324;Laerm;69639;52.380;9.962;2023-05-07T10:23:31;48.61;29.89;78.23;;
80324;Laerm;69639;52.380;9.962;2023-05-07T10:25:52;37.77;29.85;65.12;;
80324;Laerm;69639;52.380;9.962;2023-05-07T10:27:57;38.07;29.91;64.91;;
80324;Laerm;69639;52.380;9.962;2023-05-07T10:34:23;39.14;29.50;68.16;;
80324;Laerm;69639;52.380;9.962;2023-05-07T10:36:27;53.93;30.03;82.47;;
80324;Laerm;69639;52.380;9.962;2023-05-07T10:38:29;42.93;29.90;70.61;;
80324;Laerm;69639;52.380;9.962;2023-05-07T10:40:31;47.38;30.04;75.62;;
80324;Laerm;69639;52.380;9.962;2023-05-07T10:42:33;38.36;29.92;67.11;;
80324;Laerm;69639;52.380;9.962;2023-05-07T10:44:35;50.62;29.90;77.20;;
80324;Laerm;69639;52.380;9.962;2023-05-07T10:46:37;41.16;29.47;72.01;;
80324;Laerm;69639;52.380;9.962;2023-05-07T10:51:31;44.03;29.73;71.16;;
80324;Laerm;69639;52.380;9.962;2023-05-07T10:53:33;44.25;29.48;71.93;;
80324;Laerm;69639;52.380;9.962;2023-05-07T10:55:35;36.36;29.32;64.31;;
80324;Laerm;69639;52.380;9.962;2023-05-07T10:57:37;43.40;29.65;74.89;;
80324;Laerm;69639;52.380;9.962;2023-05-07T10:59:57;40.26;29.42;70.83;;
80324;Laerm;69639;52.380;9.962;2023-05-07T11:02:00;43.76;29.45;74.61;;
80324;Laerm;69639;52.380;9.962;2023-05-07T11:04:15;43.45;29.92;72.27;;
80324;Laerm;69639;52.380;9.962;2023-05-07T11:06:17;38.73;30.30;60.59;;
80324;Laerm;69639;52.380;9.962;2023-05-07T11:08:19;40.91;29.59;69.38;;
80324;Laerm;69639;52.380;9.962;2023-05-07T11:10:20;32.37;29.12;49.70;;
80324;Laerm;69639;52.380;9.962;2023-05-07T11:14:46;34.26;29.60;41.46;;
80324;Laerm;69639;52.380;9.962;2023-05-07T11:16:47;35.00;29.70;51.44;;
80324;Laerm;69639;52.380;9.962;2023-05-07T11:18:51;31.73;29.52;38.08;;
80324;Laerm;69639;52.380;9.962;2023-05-07T11:21:12;32.30;29.68;41.96;;
80324;Laerm;69639;52.380;9.962;2023-05-07T11:25:34;33.91;30.33;46.94;;
80324;Laerm;69639;52.380;9.962;2023-05-07T11:27:36;47.57;30.71;75.57;;
80324;Laerm;69639;52.380;9.962;2023-05-07T11:29:38;35.82;29.64;63.54;;
80324;Laerm;69639;52.380;9.962;2023-05-07T11:31:58;35.06;29.53;54.67;;
80324;Laerm;69639;52.380;9.962;2023-05-07T11:33:59;47.72;27.94;74.90;;
80324;Laerm;69639;52.380;9.962;2023-05-07T11:36:07;34.39;27.37;62.28;;
80324;Laerm;69639;52.380;9.962;2023-05-07T11:38:09;33.29;27.53;62.38;;
80324;Laerm;69639;52.380;9.962;2023-05-07T11:40:11;31.79;27.98;47.65;;
80324;Laerm;69639;52.380;9.962;2023-05-07T11:42:35;44.05;28.11;67.68;;
80324;Laerm;69639;52.380;9.962;2023-05-07T11:44:42;31.16;27.83;50.95;;
80324;Laerm;69639;52.380;9.962;2023-05-07T11:46:44;32.08;27.70;57.94;;
80324;Laerm;69639;52.380;9.962;2023-05-07T11:48:45;31.64;27.93;48.47;;
80324;Laerm;69639;52.380;9.962;2023-05-07T11:51:01;31.77;28.12;55.06;;